Terminal Aerodrome Forecast
Issued by NWS

Home | Current Version | Previous Version | Text Only | Print | Product List | Glossary On
Versions: 1 2 3 4 5 6 7 8 9 10 11 12 13 14
000
FTUS44 KCRP 242327
TAFALI
TAF
KALI 242327Z 2500/2524 14012KT P6SM FEW150 SCT250
     FM250400 15007KT P6SM FEW015
     FM250900 16005KT 6SM BR BKN012
     FM251500 18015G22KT P6SM BKN018
     FM251800 16014G25KT P6SM FEW030=

USA.gov is the U.S. government's official web portal to all federal, state and local government web resources and services.